Terminal Aerodrome Forecast
Issued by NWS Louisville, KY

Home | Current Version | Previous Version | Text Only | Print | Product List | Glossary On
Versions: 1 2 3 4 5 6 7 8 9 10 11 12 13 14 15 16 17 18
549
FTUS43 KLMK 221129
TAFLEX
TAF
KLEX 221129Z 2212/2312 16004KT 6SM BR OVC022
      TEMPO 2213/2217 3SM BR OVC015
     FM221900 20006KT P6SM BKN040
     FM230900 21005KT P6SM BKN015=

USA.gov is the U.S. government's official web portal to all federal, state and local government web resources and services.